Time;durP1;ratioP1;P1;durP2;ratioP2;P2;SDS_P1;SDS_P2;PMS_P1;PMS_P2;Temp;Humidity;BMP_temperature;BMP_pressure;BME280_temperature;BME280_humidity;BME280_pressure;Samples;Min_cycle;Max_cycle;Signal;HPM_P1;HPM_P2
2022/03/05 00:00:08;;;;;;;18.75;12.50;;;;;;;;;;5100287;28;20426;-81
2022/03/05 00:02:34;;;;;;;20.05;13.02;;;;;;;;;;5107496;28;20807;-81
2022/03/05 00:05:01;;;;;;;18.52;12.10;;;;;;;;;;5080366;28;20526;-81
2022/03/05 00:07:27;;;;;;;19.67;12.68;;;;;;;;;;5102570;28;20852;-81
2022/03/05 00:09:53;;;;;;;19.45;12.68;;;;;;;;;;5084242;28;20456;-80
2022/03/05 00:12:19;;;;;;;19.67;11.93;;;;;;;;;;5082507;28;20446;-80
2022/03/05 00:14:45;;;;;;;20.92;12.40;;;;;;;;;;5102846;28;20410;-81
2022/03/05 00:17:11;;;;;;;20.33;12.83;;;;;;;;;;5089426;28;20529;-81
2022/03/05 00:19:37;;;;;;;20.83;12.63;;;;;;;;;;5102280;28;20903;-81
2022/03/05 00:22:04;;;;;;;21.58;13.90;;;;;;;;;;5099571;28;20496;-81
2022/03/05 00:24:30;;;;;;;21.08;13.23;;;;;;;;;;5099930;28;20422;-80
2022/03/05 00:26:56;;;;;;;18.70;12.73;;;;;;;;;;5079914;28;20915;-80
2022/03/05 00:29:22;;;;;;;20.15;12.57;;;;;;;;;;5078479;28;20417;-81
2022/03/05 00:31:48;;;;;;;22.52;13.30;;;;;;;;;;5102408;28;20962;-80
2022/03/05 00:34:14;;;;;;;20.55;13.55;;;;;;;;;;5100196;28;20530;-80
2022/03/05 00:36:40;;;;;;;21.35;13.70;;;;;;;;;;5094029;28;20439;-80
2022/03/05 00:39:06;;;;;;;20.23;13.25;;;;;;;;;;5100939;28;20459;-81
2022/03/05 00:41:32;;;;;;;20.83;13.20;;;;;;;;;;5083329;28;20408;-80
2022/03/05 00:43:58;;;;;;;20.13;12.43;;;;;;;;;;5076854;28;20424;-81
2022/03/05 00:46:25;;;;;;;21.95;12.90;;;;;;;;;;5103244;28;20424;-81
2022/03/05 00:48:52;;;;;;;20.55;12.85;;;;;;;;;;5079475;28;20427;-81
2022/03/05 00:51:19;;;;;;;18.65;12.75;;;;;;;;;;5079847;28;20421;-81
2022/03/05 00:53:45;;;;;;;20.48;12.65;;;;;;;;;;5076050;28;20422;-81
2022/03/05 00:56:11;;;;;;;19.08;12.75;;;;;;;;;;5068636;28;20410;-80
2022/03/05 00:58:37;;;;;;;20.35;12.00;;;;;;;;;;5105820;28;20408;-81
2022/03/05 01:01:03;;;;;;;19.15;12.43;;;;;;;;;;5094211;28;20420;-81
2022/03/05 01:03:29;;;;;;;18.93;12.67;;;;;;;;;;5098716;28;20498;-80
2022/03/05 01:05:55;;;;;;;20.65;12.55;;;;;;;;;;5081229;28;20422;-81
2022/03/05 01:08:21;;;;;;;20.17;12.77;;;;;;;;;;5105156;28;20584;-80
2022/03/05 01:10:47;;;;;;;20.80;12.45;;;;;;;;;;5102543;28;20448;-81
2022/03/05 01:13:13;;;;;;;20.57;12.20;;;;;;;;;;5074006;28;21018;-81
2022/03/05 01:15:39;;;;;;;19.45;12.85;;;;;;;;;;5101614;28;20903;-81
2022/03/05 01:18:06;;;;;;;19.33;12.40;;;;;;;;;;5104565;28;20419;-81
2022/03/05 01:20:32;;;;;;;19.58;12.65;;;;;;;;;;5064258;28;20408;-81
2022/03/05 01:22:58;;;;;;;20.40;12.82;;;;;;;;;;5106201;28;20416;-81
2022/03/05 01:25:24;;;;;;;19.48;12.43;;;;;;;;;;5091394;28;20448;-81
2022/03/05 01:27:50;;;;;;;19.58;12.25;;;;;;;;;;5097069;28;20420;-81
2022/03/05 01:30:16;;;;;;;20.20;12.80;;;;;;;;;;5091942;28;20421;-81
2022/03/05 01:32:42;;;;;;;19.83;12.65;;;;;;;;;;5077665;28;20413;-81
2022/03/05 01:35:10;;;;;;;19.40;13.07;;;;;;;;;;5097170;28;20495;-80
2022/03/05 01:37:36;;;;;;;20.75;11.65;;;;;;;;;;5096468;28;20468;-80
2022/03/05 01:40:03;;;;;;;16.80;11.45;;;;;;;;;;5093999;28;20414;-80
2022/03/05 01:42:29;;;;;;;19.25;12.20;;;;;;;;;;5098173;28;20415;-81
2022/03/05 01:44:55;;;;;;;18.42;11.50;;;;;;;;;;5099146;28;20422;-80
2022/03/05 01:47:21;;;;;;;18.95;12.07;;;;;;;;;;5078010;28;20420;-80
2022/03/05 01:49:47;;;;;;;17.10;10.98;;;;;;;;;;5097329;28;20507;-80
2022/03/05 01:52:13;;;;;;;19.23;11.52;;;;;;;;;;5102102;28;20424;-80
2022/03/05 01:54:40;;;;;;;18.05;11.15;;;;;;;;;;5103876;28;20422;-80
2022/03/05 01:57:06;;;;;;;18.05;11.18;;;;;;;;;;5092172;28;20421;-80
2022/03/05 01:59:33;;;;;;;18.67;11.40;;;;;;;;;;5086105;28;20987;-80
2022/03/05 02:01:59;;;;;;;20.13;12.18;;;;;;;;;;5101297;28;20779;-80
2022/03/05 02:04:25;;;;;;;17.90;11.13;;;;;;;;;;5097479;28;20418;-80
2022/03/05 02:06:53;;;;;;;17.00;11.02;;;;;;;;;;5092830;28;20414;-80
2022/03/05 02:09:19;;;;;;;15.68;10.38;;;;;;;;;;5081347;28;20426;-80
2022/03/05 02:11:45;;;;;;;18.45;11.43;;;;;;;;;;5105701;28;20408;-81
2022/03/05 02:14:11;;;;;;;18.67;11.05;;;;;;;;;;5094923;28;20911;-80
2022/03/05 02:16:37;;;;;;;16.20;10.38;;;;;;;;;;5085103;28;20418;-80
2022/03/05 02:19:05;;;;;;;16.65;10.60;;;;;;;;;;5086464;28;20496;-81
2022/03/05 02:21:31;;;;;;;16.00;10.63;;;;;;;;;;5094687;28;20441;-81
2022/03/05 02:23:57;;;;;;;23.58;12.52;;;;;;;;;;5102980;28;20422;-81
2022/03/05 02:26:23;;;;;;;16.70;10.60;;;;;;;;;;5097251;28;20992;-81
2022/03/05 02:28:50;;;;;;;17.08;10.93;;;;;;;;;;5092766;28;20453;-81
2022/03/05 02:31:16;;;;;;;17.83;10.40;;;;;;;;;;5084849;28;20409;-81
2022/03/05 02:33:43;;;;;;;18.03;10.20;;;;;;;;;;5090966;28;21003;-81
2022/03/05 02:36:11;;;;;;;20.05;12.80;;;;;;;;;;5090164;28;20405;-81
2022/03/05 02:38:37;;;;;;;16.50;10.23;;;;;;;;;;5108583;28;20420;-81
2022/03/05 02:41:03;;;;;;;16.10;9.85;;;;;;;;;;5086799;28;20921;-81
2022/03/05 02:43:29;;;;;;;16.40;10.70;;;;;;;;;;5103407;28;20431;-81
2022/03/05 02:45:55;;;;;;;16.30;10.45;;;;;;;;;;5105508;28;21031;-81
2022/03/05 02:48:22;;;;;;;17.47;10.50;;;;;;;;;;5085705;28;20413;-81
2022/03/05 02:50:50;;;;;;;16.65;10.00;;;;;;;;;;5082169;28;20415;-81
2022/03/05 02:53:16;;;;;;;14.80;9.45;;;;;;;;;;5092036;28;20805;-81
2022/03/05 02:55:43;;;;;;;16.08;9.70;;;;;;;;;;5110445;28;20414;-81
2022/03/05 02:58:09;;;;;;;15.45;9.65;;;;;;;;;;5085558;28;20450;-81
2022/03/05 03:00:36;;;;;;;14.88;9.77;;;;;;;;;;5104601;28;20476;-81
2022/03/05 03:03:02;;;;;;;17.08;9.50;;;;;;;;;;5095234;28;20456;-81
2022/03/05 03:05:28;;;;;;;15.38;9.85;;;;;;;;;;5067829;28;20492;-81
2022/03/05 03:07:54;;;;;;;16.70;10.30;;;;;;;;;;5090239;28;20859;-81
2022/03/05 03:10:21;;;;;;;16.17;9.57;;;;;;;;;;5104128;28;20771;-81
2022/03/05 03:12:47;;;;;;;18.83;10.67;;;;;;;;;;5089901;28;20503;-81
2022/03/05 03:15:14;;;;;;;19.00;11.57;;;;;;;;;;5099637;28;20416;-81
2022/03/05 03:17:41;;;;;;;16.90;9.98;;;;;;;;;;5088281;28;20413;-81
2022/03/05 03:20:08;;;;;;;15.27;9.27;;;;;;;;;;5106537;28;20411;-81
2022/03/05 03:22:34;;;;;;;15.27;9.20;;;;;;;;;;5107739;28;20751;-81
2022/03/05 03:25:01;;;;;;;15.35;9.68;;;;;;;;;;5106394;28;20419;-81
2022/03/05 03:27:27;;;;;;;16.25;9.80;;;;;;;;;;5095106;28;20942;-80
2022/03/05 03:29:53;;;;;;;15.97;9.67;;;;;;;;;;5103262;28;20420;-80
2022/03/05 03:32:19;;;;;;;16.23;9.40;;;;;;;;;;5089223;28;20417;-80
2022/03/05 03:34:45;;;;;;;17.03;9.93;;;;;;;;;;5108359;28;20419;-80
2022/03/05 03:37:11;;;;;;;15.68;9.70;;;;;;;;;;5107274;28;20416;-80
2022/03/05 03:39:37;;;;;;;14.77;9.33;;;;;;;;;;5085331;28;20418;-80
2022/03/05 03:42:03;;;;;;;17.50;9.98;;;;;;;;;;5097307;28;20413;-80
2022/03/05 03:44:29;;;;;;;18.38;9.75;;;;;;;;;;5108121;28;20972;-81
2022/03/05 03:46:56;;;;;;;16.25;10.23;;;;;;;;;;5102747;28;20483;-80
2022/03/05 03:49:23;;;;;;;16.05;10.10;;;;;;;;;;5083937;28;20467;-80
2022/03/05 03:51:49;;;;;;;16.83;10.82;;;;;;;;;;5083552;28;20916;-81
2022/03/05 03:54:15;;;;;;;16.83;10.45;;;;;;;;;;5101087;28;20409;-80
2022/03/05 03:56:41;;;;;;;15.93;10.57;;;;;;;;;;5100845;28;20429;-80
2022/03/05 03:59:07;;;;;;;17.50;10.23;;;;;;;;;;5079893;28;20422;-80
2022/03/05 04:01:33;;;;;;;16.10;9.80;;;;;;;;;;5105827;28;20833;-80
2022/03/05 04:04:00;;;;;;;16.40;10.68;;;;;;;;;;5109443;28;20431;-79
2022/03/05 04:08:41;;;;;;;18.42;10.45;;;;;;;;;;5078717;28;20416;-80
2022/03/05 04:09:12;;;;;;;16.65;10.32;;;;;;;;;;5097404;28;20507;-80
2022/03/05 04:11:38;;;;;;;16.42;10.20;;;;;;;;;;5100342;28;20412;-80
2022/03/05 04:14:04;;;;;;;16.52;9.85;;;;;;;;;;5067012;28;20428;-80
2022/03/05 04:16:30;;;;;;;18.33;10.65;;;;;;;;;;5098089;28;20408;-80
2022/03/05 04:18:56;;;;;;;17.95;11.73;;;;;;;;;;5101178;28;20416;-80
2022/03/05 04:21:22;;;;;;;16.57;10.40;;;;;;;;;;5069897;28;20406;-79
2022/03/05 04:23:48;;;;;;;17.08;10.52;;;;;;;;;;5085718;28;20489;-80
2022/03/05 04:26:14;;;;;;;16.60;9.97;;;;;;;;;;5072419;28;20465;-79
2022/03/05 04:28:40;;;;;;;18.50;10.43;;;;;;;;;;5091584;28;20418;-80
2022/03/05 04:31:07;;;;;;;17.38;10.48;;;;;;;;;;5091849;28;20409;-80
2022/03/05 04:33:33;;;;;;;16.15;10.13;;;;;;;;;;5101249;28;20413;-79
2022/03/05 04:35:59;;;;;;;19.95;10.45;;;;;;;;;;5103258;28;20408;-80
2022/03/05 04:38:25;;;;;;;17.63;10.55;;;;;;;;;;5083074;28;20420;-79
2022/03/05 04:40:51;;;;;;;19.25;10.52;;;;;;;;;;5095790;28;20491;-80
2022/03/05 04:43:17;;;;;;;17.20;10.63;;;;;;;;;;5106183;28;20420;-80
2022/03/05 04:45:43;;;;;;;17.30;10.70;;;;;;;;;;5058731;28;20410;-79
2022/03/05 04:48:09;;;;;;;16.05;10.65;;;;;;;;;;5095399;28;20421;-79
2022/03/05 04:50:35;;;;;;;17.38;10.48;;;;;;;;;;5105250;28;20440;-79
2022/03/05 04:53:02;;;;;;;16.23;9.90;;;;;;;;;;5097396;28;20429;-79
2022/03/05 04:55:29;;;;;;;17.83;10.43;;;;;;;;;;5096437;28;20968;-79
2022/03/05 04:57:55;;;;;;;18.65;11.15;;;;;;;;;;5093891;28;20413;-79
2022/03/05 05:00:21;;;;;;;17.88;10.82;;;;;;;;;;5108631;28;20999;-79
2022/03/05 05:02:48;;;;;;;17.63;10.48;;;;;;;;;;5094944;28;20414;-79
2022/03/05 05:05:14;;;;;;;16.95;10.40;;;;;;;;;;5105189;28;20469;-79
2022/03/05 05:07:40;;;;;;;14.82;9.68;;;;;;;;;;5106009;28;20420;-79
2022/03/05 05:10:07;;;;;;;17.92;10.95;;;;;;;;;;5084789;28;20557;-78
2022/03/05 05:12:33;;;;;;;16.45;10.15;;;;;;;;;;5102454;28;20416;-78
2022/03/05 05:14:59;;;;;;;18.13;10.70;;;;;;;;;;5088085;28;21008;-78
2022/03/05 05:17:25;;;;;;;17.37;11.17;;;;;;;;;;5093828;28;20410;-79
2022/03/05 05:19:52;;;;;;;20.10;12.18;;;;;;;;;;5084267;28;20421;-78
2022/03/05 05:22:18;;;;;;;17.97;10.77;;;;;;;;;;5084263;28;20425;-79
2022/03/05 05:24:44;;;;;;;19.52;11.60;;;;;;;;;;5093314;28;20462;-79
2022/03/05 05:27:10;;;;;;;20.30;12.30;;;;;;;;;;5079094;28;20418;-79
2022/03/05 05:29:36;;;;;;;24.73;14.65;;;;;;;;;;5095137;28;20425;-79
2022/03/05 05:32:02;;;;;;;19.65;11.52;;;;;;;;;;5107132;28;20423;-79
2022/03/05 05:34:29;;;;;;;17.13;11.00;;;;;;;;;;5069535;28;20517;-79
2022/03/05 05:36:55;;;;;;;23.17;13.90;;;;;;;;;;5081828;28;20428;-79
2022/03/05 05:39:21;;;;;;;22.83;13.45;;;;;;;;;;5081287;28;21390;-79
2022/03/05 05:41:47;;;;;;;21.80;13.77;;;;;;;;;;5099554;28;20416;-79
2022/03/05 05:44:13;;;;;;;18.40;11.50;;;;;;;;;;5085001;28;20761;-78
2022/03/05 05:46:39;;;;;;;16.55;9.95;;;;;;;;;;5081500;28;20913;-78
2022/03/05 05:49:05;;;;;;;18.27;10.48;;;;;;;;;;5098063;28;20428;-78
2022/03/05 05:51:32;;;;;;;16.35;10.32;;;;;;;;;;5095837;28;20413;-78
2022/03/05 05:53:59;;;;;;;17.02;10.13;;;;;;;;;;5074749;28;20441;-77
2022/03/05 05:56:25;;;;;;;17.77;10.05;;;;;;;;;;5067417;28;20456;-77
2022/03/05 05:58:51;;;;;;;17.05;10.05;;;;;;;;;;5097067;28;20417;-77
2022/03/05 06:01:18;;;;;;;20.03;11.93;;;;;;;;;;5084728;28;20909;-77
2022/03/05 06:03:45;;;;;;;17.20;10.63;;;;;;;;;;5097927;28;21170;-77
2022/03/05 06:06:11;;;;;;;19.77;11.45;;;;;;;;;;5105270;28;20428;-77
2022/03/05 06:08:37;;;;;;;18.30;10.88;;;;;;;;;;5088970;28;20516;-77
2022/03/05 06:11:03;;;;;;;20.50;10.65;;;;;;;;;;5094042;28;20427;-77
2022/03/05 06:13:29;;;;;;;18.60;11.77;;;;;;;;;;5100176;28;20420;-77
2022/03/05 06:15:56;;;;;;;17.77;10.45;;;;;;;;;;5109281;28;20412;-77
2022/03/05 06:18:22;;;;;;;15.70;10.15;;;;;;;;;;5082283;28;20468;-77
2022/03/05 06:20:48;;;;;;;17.90;11.68;;;;;;;;;;5111606;28;20419;-77
2022/03/05 06:23:14;;;;;;;15.93;10.30;;;;;;;;;;5097504;28;20408;-77
2022/03/05 06:25:40;;;;;;;15.95;10.15;;;;;;;;;;5087247;28;20494;-77
2022/03/05 06:28:06;;;;;;;16.43;9.87;;;;;;;;;;5101759;28;20422;-77
2022/03/05 06:30:32;;;;;;;15.73;9.38;;;;;;;;;;5086818;28;20417;-77
2022/03/05 06:32:58;;;;;;;16.15;10.35;;;;;;;;;;5083721;28;20755;-77
2022/03/05 06:35:24;;;;;;;16.40;9.93;;;;;;;;;;5104270;28;20895;-77
2022/03/05 06:37:50;;;;;;;16.00;9.97;;;;;;;;;;5082708;28;20940;-77
2022/03/05 06:40:16;;;;;;;16.08;9.93;;;;;;;;;;5100197;28;20431;-77
2022/03/05 06:42:44;;;;;;;16.50;10.10;;;;;;;;;;5094181;28;20409;-76
2022/03/05 06:45:10;;;;;;;15.95;10.38;;;;;;;;;;5100624;28;20946;-75
2022/03/05 06:47:36;;;;;;;15.75;10.20;;;;;;;;;;5078675;28;20479;-75
2022/03/05 06:50:03;;;;;;;16.70;9.95;;;;;;;;;;5087111;28;20409;-75
2022/03/05 06:52:30;;;;;;;16.02;10.23;;;;;;;;;;5100707;28;20428;-75
2022/03/05 06:54:57;;;;;;;16.77;10.38;;;;;;;;;;5100793;28;21057;-75
2022/03/05 06:57:23;;;;;;;15.40;10.32;;;;;;;;;;5109921;28;20961;-75
2022/03/05 06:59:49;;;;;;;18.48;10.38;;;;;;;;;;5083007;28;20451;-75
2022/03/05 07:02:15;;;;;;;18.42;9.88;;;;;;;;;;5106583;28;20491;-75
2022/03/05 07:04:42;;;;;;;15.18;9.90;;;;;;;;;;5108332;28;20416;-75
2022/03/05 07:07:08;;;;;;;15.43;10.10;;;;;;;;;;5079476;28;20424;-75
2022/03/05 07:09:34;;;;;;;17.60;11.23;;;;;;;;;;5103574;28;20779;-75
2022/03/05 07:12:00;;;;;;;16.50;10.82;;;;;;;;;;5102786;28;20416;-76
2022/03/05 07:14:27;;;;;;;17.10;10.50;;;;;;;;;;5081099;28;21487;-75
2022/03/05 07:16:54;;;;;;;22.10;14.43;;;;;;;;;;5107935;28;20419;-75
2022/03/05 07:19:20;;;;;;;19.65;12.02;;;;;;;;;;5103837;28;20414;-75
2022/03/05 07:21:46;;;;;;;18.17;11.55;;;;;;;;;;5088103;28;20911;-75
2022/03/05 07:24:12;;;;;;;16.88;10.50;;;;;;;;;;5083368;28;20425;-75
2022/03/05 07:26:38;;;;;;;14.98;10.32;;;;;;;;;;5100683;28;20428;-74
2022/03/05 07:29:05;;;;;;;14.63;9.30;;;;;;;;;;5110456;28;20768;-75
2022/03/05 07:31:31;;;;;;;13.40;8.90;;;;;;;;;;5078717;28;20416;-73
2022/03/05 07:33:57;;;;;;;13.48;9.25;;;;;;;;;;5099159;28;20422;-73
2022/03/05 07:36:23;;;;;;;14.88;9.55;;;;;;;;;;5100705;28;20405;-71
2022/03/05 07:38:51;;;;;;;14.70;9.70;;;;;;;;;;5099710;28;21473;-72
2022/03/05 07:41:17;;;;;;;13.80;9.32;;;;;;;;;;5103303;28;20416;-71
2022/03/05 07:43:44;;;;;;;27.08;20.95;;;;;;;;;;5104389;28;20418;-72
2022/03/05 07:46:10;;;;;;;19.75;12.55;;;;;;;;;;5099111;28;20983;-72
2022/03/05 07:48:36;;;;;;;18.77;13.60;;;;;;;;;;5070206;28;20552;-73
2022/03/05 07:51:02;;;;;;;15.68;11.13;;;;;;;;;;5092567;28;20536;-72
2022/03/05 07:53:29;;;;;;;14.43;10.55;;;;;;;;;;5101491;28;20418;-73
2022/03/05 07:55:55;;;;;;;14.32;9.38;;;;;;;;;;5098131;28;20413;-73
2022/03/05 07:58:21;;;;;;;15.98;10.55;;;;;;;;;;5099191;28;21064;-73
2022/03/05 08:00:47;;;;;;;15.40;10.23;;;;;;;;;;5066783;28;20420;-73
2022/03/05 08:03:13;;;;;;;16.95;11.10;;;;;;;;;;5093139;28;20418;-72
2022/03/05 08:05:41;;;;;;;16.23;9.55;;;;;;;;;;5106225;28;20412;-72
2022/03/05 08:08:07;;;;;;;15.65;9.93;;;;;;;;;;5101130;28;20447;-73
2022/03/05 08:10:33;;;;;;;16.25;10.00;;;;;;;;;;5098549;28;20909;-73
2022/03/05 08:12:59;;;;;;;17.02;10.30;;;;;;;;;;5076963;28;20510;-73
2022/03/05 08:15:25;;;;;;;14.73;9.60;;;;;;;;;;5100041;28;20436;-74
2022/03/05 08:17:57;;;;;;;17.15;10.02;;;;;;;;;;5082712;28;20804;-74
2022/03/05 08:20:24;;;;;;;16.45;9.90;;;;;;;;;;5104153;28;20418;-74
2022/03/05 08:22:50;;;;;;;15.33;10.33;;;;;;;;;;5107438;28;20565;-71
2022/03/05 08:25:16;;;;;;;16.00;9.80;;;;;;;;;;5104242;28;20504;-71
2022/03/05 08:27:42;;;;;;;16.02;10.38;;;;;;;;;;5098455;28;20472;-72
2022/03/05 08:30:09;;;;;;;16.20;10.30;;;1.60;99.90;;;;;;5097995;28;20430;-72
2022/03/05 08:32:35;;;;;;;15.18;9.63;;;;;;;;;;5098106;28;20417;-70
2022/03/05 08:35:03;;;;;;;14.77;10.10;;;;;;;;;;5098856;28;20404;-73
2022/03/05 08:37:29;;;;;;;15.73;10.10;;;;;;;;;;5080112;28;20755;-72
2022/03/05 08:39:55;;;;;;;16.33;9.67;;;;;;;;;;5084092;28;20420;-73
2022/03/05 08:42:21;;;;;;;16.00;10.50;;;;;;;;;;5094939;28;20455;-72
2022/03/05 08:44:47;;;;;;;15.40;10.10;;;;;;;;;;5077910;28;20415;-72
2022/03/05 08:47:13;;;;;;;16.98;10.27;;;;;;;;;;5095250;28;20479;-72
2022/03/05 08:49:40;;;;;;;16.25;10.05;;;;;;;;;;5085233;28;20508;-72
2022/03/05 08:52:06;;;;;;;15.20;10.13;;;;;;;;;;5101492;28;20816;-72
2022/03/05 08:54:32;;;;;;;16.55;10.93;;;;;;;;;;5100652;28;20412;-73
2022/03/05 08:56:58;;;;;;;18.17;11.27;;;;;;;;;;5085551;28;20414;-73
2022/03/05 08:59:24;;;;;;;18.85;11.20;;;;;;;;;;5098267;28;20846;-73
2022/03/05 09:01:50;;;;;;;17.08;10.70;;;;;;;;;;5101888;28;20802;-73
2022/03/05 09:04:16;;;;;;;15.77;10.48;;;;;;;;;;5084633;28;20423;-72
2022/03/05 09:06:42;;;;;;;17.02;11.05;;;;;;;;;;5096344;28;20422;-72
2022/03/05 09:09:09;;;;;;;16.92;11.48;;;;;;;;;;5101945;28;20961;-74
2022/03/05 09:11:37;;;;;;;18.70;11.55;;;;;;;;;;5094377;28;20450;-74
2022/03/05 09:14:05;;;;;;;17.00;11.32;;;2.60;99.90;;;;;;5099346;28;20424;-73
2022/03/05 09:16:31;;;;;;;17.20;11.07;;;;;;;;;;5090961;28;20837;-73
2022/03/05 09:18:57;;;;;;;16.70;11.52;;;;;;;;;;5097360;28;20408;-73
2022/03/05 09:21:23;;;;;;;17.25;12.18;;;;;;;;;;5097547;28;20508;-73
2022/03/05 09:23:49;;;;;;;18.48;11.27;;;;;;;;;;5102114;28;20508;-73
2022/03/05 09:26:15;;;;;;;18.27;11.93;;;;;;;;;;5095249;28;20420;-73
2022/03/05 09:28:42;;;;;;;16.50;11.38;;;;;;;;;;5075061;28;20495;-73
2022/03/05 09:31:08;;;;;;;18.50;12.25;;;;;;;;;;5074403;28;20940;-71
2022/03/05 09:33:34;;;;;;;20.00;12.85;;;;;;;;;;5075217;28;20863;-72
2022/03/05 09:36:00;;;;;;;22.33;12.82;;;;;;;;;;5093506;28;20428;-72
2022/03/05 09:38:26;;;;;;;19.73;12.85;;;;;;;;;;5095016;28;20427;-73
2022/03/05 09:40:53;;;;;;;20.70;12.35;;;3.70;99.90;;;;;;5101287;28;20916;-72
2022/03/05 09:43:20;;;;;;;18.23;12.27;;;3.50;99.90;;;;;;5092121;28;20471;-72
2022/03/05 09:45:47;;;;;;;20.30;12.77;;;;;;;;;;5102818;28;20424;-72
2022/03/05 09:48:15;;;;;;;19.10;12.77;;;;;;;;;;5085894;28;20427;-73
2022/03/05 09:50:41;;;;;;;20.38;13.05;;;;;;;;;;5103109;28;20424;-73
2022/03/05 09:53:07;;;;;;;18.97;12.83;;;;;;;;;;5107424;28;20791;-72
2022/03/05 09:55:33;;;;;;;18.80;12.75;;;;;;;;;;5102064;28;20415;-72
2022/03/05 09:58:00;;;;;;;19.40;14.15;;;;;;;;;;5101747;28;20776;-72
2022/03/05 10:00:26;;;;;;;20.40;13.25;;;;;;;;;;5081599;28;20420;-74
2022/03/05 10:02:53;;;;;;;20.17;12.95;;;;;;;;;;5094295;28;20422;-74
2022/03/05 10:05:27;;;;;;;20.27;12.63;;;4.10;99.90;;;;;;5076075;28;20514;-72
2022/03/05 10:08:07;;;;;;;21.52;13.60;;;;;;;;;;5102612;28;20545;-72
2022/03/05 10:10:39;;;;;;;21.55;13.23;;;;;;;;;;5101737;28;20419;-71
2022/03/05 10:13:15;;;;;;;22.45;13.38;;;;;;;;;;5098561;28;20466;-71
2022/03/05 10:15:41;;;;;;;21.63;13.45;;;;;;;;;;5080175;28;20417;-70
2022/03/05 10:18:08;;;;;;;20.20;13.50;;;;;;;;;;5103828;28;20532;-70
2022/03/05 10:20:34;;;;;;;23.10;13.90;;;;;;;;;;5095816;28;20916;-71
2022/03/05 10:23:08;;;;;;;22.13;14.23;;;;;;;;;;5099493;28;20460;-71
2022/03/05 10:25:42;;;;;;;21.95;14.50;;;4.30;99.90;;;;;;5095889;28;20438;-71
2022/03/05 10:28:17;;;;;;;21.83;13.27;;;;;;;;;;5098176;28;20417;-70
2022/03/05 10:30:45;;;;;;;20.97;13.30;;;;;;;;;;5098619;28;20771;-70
2022/03/05 10:33:38;;;;;;;21.00;13.90;;;4.70;99.90;;;;;;5077422;28;21023;-70
2022/03/05 10:36:21;;;;;;;22.15;14.20;;;4.60;99.90;;;;;;5092285;28;20404;-70
2022/03/05 10:38:55;;;;;;;22.27;14.87;;;;;;;;;;5098722;28;20929;-70
2022/03/05 10:41:36;;;;;;;23.60;14.73;;;;;;;;;;5091557;28;20922;-70
2022/03/05 10:44:08;;;;;;;24.00;15.07;;;;;;;;;;5109597;28;20420;-70
2022/03/05 10:46:56;;;;;;;24.42;13.93;;;5.10;99.90;;;;;;5098266;28;20431;-70
2022/03/05 10:49:23;;;;;;;20.67;14.02;;;;;;;;;;5081823;28;20496;-70
2022/03/05 10:52:06;;;;;;;22.10;13.68;;;;;;;;;;5103689;28;20508;-70
2022/03/05 10:54:41;;;;;;;21.58;13.75;;;5.10;99.90;;;;;;5086283;28;20915;-70
2022/03/05 10:57:07;;;;;;;22.40;13.85;;;;;;;;;;5102634;28;20408;-70
2022/03/05 10:59:43;;;;;;;21.40;13.32;;;6.10;99.90;;;;;;5100790;28;20500;-70
2022/03/05 11:02:10;;;;;;;22.08;14.65;;;;;;;;;;5078557;28;20416;-70
2022/03/05 11:04:37;;;;;;;23.92;14.77;;;5.20;99.90;;;;;;5095248;28;20400;-70
2022/03/05 11:07:04;;;;;;;20.90;13.60;;;;;;;;;;5094018;28;20420;-69
2022/03/05 11:09:31;;;;;;;20.93;14.23;;;;;;;;;;5093503;28;20460;-70
2022/03/05 11:12:01;;;;;;;21.02;13.70;;;;;;;;;;5097984;28;20449;-69
2022/03/05 11:14:27;;;;;;;21.55;14.75;;;5.80;99.90;;;;;;5082896;28;20927;-70
2022/03/05 11:16:54;;;;;;;22.90;15.15;;;;;;;;;;5083832;28;21301;-69
2022/03/05 11:19:25;;;;;;;21.58;13.90;;;5.30;99.90;;;;;;5097360;28;20471;-69
2022/03/05 11:21:51;;;;;;;22.48;13.32;;;;;;;;;;5098550;28;20439;-70
2022/03/05 11:24:19;;;;;;;23.33;15.23;;;;;;;;;;5086475;28;20420;-70
2022/03/05 11:26:50;;;;;;;24.90;15.63;;;;;;;;;;5099755;28;20920;-69
2022/03/05 11:29:19;;;;;;;22.40;14.20;;;;;;;;;;5097148;28;20430;-69
2022/03/05 11:31:47;;;;;;;22.45;14.23;;;;;;;;;;5081755;28;20504;-72
2022/03/05 11:34:17;;;;;;;22.80;13.70;;;6.10;99.90;;;;;;5105600;28;20430;-70
2022/03/05 11:36:43;;;;;;;21.05;13.80;;;;;;;;;;5077940;28;20414;-70
2022/03/05 11:39:14;;;;;;;21.63;13.73;;;;;;;;;;5102091;28;20953;-71
2022/03/05 11:42:04;;;;;;;21.38;14.60;;;6.20;99.90;;;;;;5078736;28;20777;-71
2022/03/05 11:44:41;;;;;;;22.30;14.68;;;6.20;99.90;;;;;;5100077;28;20415;-71
2022/03/05 11:47:20;;;;;;;22.90;14.35;;;;;;;;;;5103544;28;20465;-72
2022/03/05 11:49:59;;;;;;;24.63;14.73;;;;;;;;;;5106665;28;20417;-71
2022/03/05 11:52:41;;;;;;;23.60;13.98;;;;;;;;;;5094742;28;20517;-71
2022/03/05 11:55:17;;;;;;;23.77;14.85;;;;;;;;;;5098281;28;21259;-71
2022/03/05 11:57:46;;;;;;;21.45;14.27;;;;;;;;;;5096090;28;20453;-71
2022/03/05 12:00:12;;;;;;;22.85;14.52;;;;;;;;;;5086407;28;20508;-71
2022/03/05 12:02:45;;;;;;;20.92;14.82;;;;;;;;;;5098693;28;20420;-70
2022/03/05 12:05:31;;;;;;;21.17;14.45;;;;;;;;;;5096094;28;20424;-70
2022/03/05 12:07:57;;;;;;;20.67;13.73;;;;;;;;;;5094537;28;20432;-70
2022/03/05 12:10:23;;;;;;;22.90;13.80;;;;;;;;;;5066162;28;20422;-71
2022/03/05 12:12:56;;;;;;;21.48;14.43;;;6.50;99.90;;;;;;5099188;28;20425;-71
2022/03/05 12:15:32;;;;;;;22.52;14.30;;;6.80;99.90;;;;;;5119381;27;20421;-71
2022/03/05 12:18:00;;;;;;;23.03;15.27;;;;;;;;;;5098597;28;20429;-71
2022/03/05 12:20:31;;;;;;;22.30;15.25;;;;;;;;;;5096809;28;20420;-71
2022/03/05 12:23:00;;;;;;;20.83;14.68;;;;;;;;;;5103213;28;20499;-72
2022/03/05 12:25:27;;;;;;;21.27;14.98;;;;;;;;;;5099827;28;20420;-72
2022/03/05 12:27:53;;;;;;;21.80;14.63;;;;;;;;;;5107015;28;20842;-72
2022/03/05 12:30:22;;;;;;;21.77;14.10;;;;;;;;;;5121196;27;20420;-72
2022/03/05 12:32:48;;;;;;;20.50;14.30;;;;;;;;;;5100315;28;20416;-71
2022/03/05 12:35:15;;;;;;;21.25;14.20;;;;;;;;;;5102692;28;20422;-71
2022/03/05 12:37:43;;;;;;;23.35;14.95;;;;;;;;;;5089663;28;20454;-72
2022/03/05 12:40:09;;;;;;;20.55;14.55;;;;;;;;;;5100875;28;20439;-71
2022/03/05 12:42:41;;;;;;;21.80;15.80;;;;;;;;;;5087414;28;20494;-74
2022/03/05 12:45:08;;;;;;;22.42;14.60;;;;;;;;;;5097850;28;20426;-74
2022/03/05 12:47:34;;;;;;;20.50;13.65;;;;;;;;;;5104655;28;20472;-73
2022/03/05 12:50:20;;;;;;;19.67;14.18;;;;;;;;;;5099502;28;20412;-74
2022/03/05 12:56:09;;;;;;;23.23;14.60;;;;;;;;;;5104695;28;20391;-73
2022/03/05 12:58:36;;;;;;;21.63;14.32;;;;;;;;;;5078268;28;20422;-74
2022/03/05 13:01:08;;;;;;;20.87;13.87;;;7.40;99.90;;;;;;5099002;27;20418;-73
2022/03/05 13:03:35;;;;;;;20.98;14.07;;;8.00;99.90;;;;;;5079553;28;20428;-73
2022/03/05 13:06:02;;;;;;;20.95;14.23;;;;;;;;;;5079368;28;20412;-73
2022/03/05 13:08:34;;;;;;;21.67;14.03;;;;;;;;;;5083746;28;20420;-73
2022/03/05 13:11:03;;;;;;;22.42;13.63;;;;;;;;;;5088955;28;20420;-73
2022/03/05 13:13:33;;;;;;;21.65;14.38;;;;;;;;;;5104287;28;20598;-72
2022/03/05 13:16:00;;;;;;;20.25;14.23;;;;;;;;;;5103778;28;20428;-73
2022/03/05 13:18:28;;;;;;;21.38;13.98;;;;;;;;;;5095614;28;20503;-72
2022/03/05 13:20:59;;;;;;;22.45;15.40;;;;;;;;;;5097074;28;20892;-72
2022/03/05 13:23:25;;;;;;;21.00;15.27;;;;;;;;;;5099363;28;20421;-71
2022/03/05 13:25:51;;;;;;;21.93;15.07;;;;;;;;;;5101581;28;21103;-71
2022/03/05 13:28:19;;;;;;;21.33;14.35;;;;;;;;;;5082556;28;20899;-71
2022/03/05 13:30:53;;;;;;;20.88;15.00;;;;;;;;;;5098336;28;20424;-71
2022/03/05 13:33:39;;;;;;;20.00;13.60;;;;;;;;;;5098062;28;20422;-72
2022/03/05 13:36:12;;;;;;;20.75;13.25;;;;;;;;;;5087720;28;20768;-71
2022/03/05 13:38:39;;;;;;;21.70;14.63;;;;;;;;;;5101155;28;20448;-71
2022/03/05 13:41:05;;;;;;;21.52;13.50;;;;;;;;;;5084781;28;20514;-71
2022/03/05 13:43:34;;;;;;;23.70;14.23;;;;;;;;;;5087135;28;20447;-72
2022/03/05 13:46:00;;;;;;;23.58;14.60;;;;;;;;;;5080184;28;20420;-73
2022/03/05 13:48:27;;;;;;;23.65;15.70;;;;;;;;;;5081295;28;20436;-72
2022/03/05 13:50:54;;;;;;;21.13;14.05;;;;;;;;;;5083194;28;20458;-73
2022/03/05 13:53:21;;;;;;;21.20;14.30;;;;;;;;;;5095965;28;20508;-73
2022/03/05 13:56:01;;;;;;;25.05;14.95;;;7.60;99.90;;;;;;5095035;28;20448;-72
2022/03/05 13:58:30;;;;;;;24.73;15.20;;;;;;;;;;5101296;28;20450;-72
2022/03/05 14:00:56;;;;;;;21.17;14.02;;;;;;;;;;5098707;28;20416;-72
2022/03/05 14:03:22;;;;;;;22.48;15.25;;;;;;;;;;5094606;28;20458;-71
2022/03/05 14:05:48;;;;;;;23.67;15.55;;;;;;;;;;5097341;28;21408;-72
2022/03/05 14:08:14;;;;;;;22.80;15.15;;;;;;;;;;5097319;28;20423;-72
2022/03/05 14:10:41;;;;;;;24.60;15.77;;;;;;;;;;5080333;28;20454;-72
2022/03/05 14:13:15;;;;;;;21.88;14.82;;;7.50;99.90;;;;;;5102397;28;20420;-72
2022/03/05 14:15:41;;;;;;;22.48;14.70;;;;;;;;;;5069006;28;20410;-72